Terminal Aerodrome Forecast
Issued by NWS

Home | Current Version | Previous Version | Text Only | Print | Product List | Glossary On
Versions: 1 2 3 4 5 6 7 8 9 10 11 12 13 14 15 16 17 18 19 20 21 22 23 24 25
000
FTUS44 KBMX 190050 AAA
TAFANB
TAF AMD
KANB 190050Z 1901/1924 21014G25KT P6SM SHRA VCTS BKN030CB BKN150
      TEMPO 1902/1904 21020G35KT 1SM +TSRA OVC015CB
     FM190900 22012G18KT 3SM -SHRA BR OVC015
     FM191500 27012KT P6SM VCSH OVC020=

USA.gov is the U.S. government's official web portal to all federal, state and local government web resources and services.